createdAt,value
2017-11-25T00:01:39.053Z,6.20
2017-11-25T00:03:41.722Z,6.20
2017-11-25T00:05:44.412Z,6.20
2017-11-25T00:07:47.076Z,6.20
2017-11-25T00:09:49.733Z,6.10
2017-11-25T00:11:52.411Z,6.10
2017-11-25T00:13:55.109Z,6.10
2017-11-25T00:15:57.759Z,6.10
2017-11-25T00:18:00.463Z,6.10
2017-11-25T00:20:03.224Z,6.10
2017-11-25T00:22:05.998Z,6.00
2017-11-25T00:24:08.683Z,5.90
2017-11-25T00:26:11.352Z,5.90
2017-11-25T00:28:14.236Z,5.90
2017-11-25T00:30:17.151Z,5.90
2017-11-25T00:32:19.824Z,5.90
2017-11-25T00:34:22.585Z,5.90
2017-11-25T00:36:25.297Z,5.80
2017-11-25T00:38:27.954Z,5.70
2017-11-25T00:40:30.621Z,5.60
2017-11-25T00:42:33.311Z,5.60
2017-11-25T00:44:36.824Z,5.50
2017-11-25T00:46:40.239Z,5.50
2017-11-25T00:48:42.954Z,5.50
2017-11-25T00:50:45.617Z,5.40
2017-11-25T00:52:48.266Z,5.40
2017-11-25T00:54:50.975Z,5.40
2017-11-25T00:56:53.631Z,5.40
2017-11-25T00:58:56.271Z,5.40
2017-11-25T01:00:59.018Z,5.40
2017-11-25T01:03:01.683Z,5.40
2017-11-25T01:05:04.333Z,5.40
2017-11-25T01:07:07.014Z,5.40
2017-11-25T01:09:09.669Z,5.50
2017-11-25T01:11:13.120Z,5.50
2017-11-25T01:13:15.776Z,5.50
2017-11-25T01:15:18.442Z,5.50
2017-11-25T01:17:21.188Z,5.50
2017-11-25T01:19:24.750Z,5.40
2017-11-25T01:21:27.532Z,5.40
2017-11-25T01:23:30.254Z,5.40
2017-11-25T01:25:33.055Z,5.40
2017-11-25T01:27:35.751Z,5.40
2017-11-25T01:29:38.495Z,5.30
2017-11-25T01:31:41.212Z,5.30
2017-11-25T01:33:43.909Z,5.40
2017-11-25T01:35:46.723Z,5.40
2017-11-25T01:37:49.429Z,5.40
2017-11-25T01:39:52.156Z,5.40
2017-11-25T01:41:55.669Z,5.40
2017-11-25T01:43:58.477Z,5.30
2017-11-25T01:46:01.235Z,5.40
2017-11-25T01:48:03.996Z,5.40
2017-11-25T01:50:07.488Z,5.30
2017-11-25T01:52:10.980Z,5.40
2017-11-25T01:54:14.485Z,5.40
2017-11-25T01:56:17.984Z,5.40
2017-11-25T01:58:20.780Z,5.40
2017-11-25T02:00:23.674Z,5.40
2017-11-25T02:02:26.379Z,5.40
2017-11-25T02:04:29.905Z,5.40
2017-11-25T02:06:33.467Z,5.40
2017-11-25T02:08:36.218Z,5.40
2017-11-25T02:10:38.948Z,5.40
2017-11-25T02:12:41.672Z,5.40
2017-11-25T02:14:44.403Z,5.40
2017-11-25T02:16:47.155Z,5.30
2017-11-25T02:18:49.908Z,5.30
2017-11-25T02:20:52.715Z,5.30
2017-11-25T02:22:55.477Z,5.30
2017-11-25T02:24:58.336Z,5.30
2017-11-25T02:27:01.110Z,5.30
2017-11-25T02:29:03.956Z,5.40
2017-11-25T02:31:06.738Z,5.30
2017-11-25T02:33:10.260Z,5.30
2017-11-25T02:35:13.003Z,5.40
2017-11-25T02:37:15.754Z,5.30
2017-11-25T02:39:18.526Z,5.30
2017-11-25T02:41:21.277Z,5.40
2017-11-25T02:43:24.077Z,5.30
2017-11-25T02:45:26.803Z,5.30
2017-11-25T02:47:30.325Z,5.40
2017-11-25T02:49:33.067Z,5.30
2017-11-25T02:51:35.812Z,5.30
2017-11-25T02:53:38.583Z,5.30
2017-11-25T02:55:41.334Z,5.30
2017-11-25T02:57:44.096Z,5.30
2017-11-25T02:59:47.726Z,5.30
2017-11-25T03:01:50.464Z,5.30
2017-11-25T03:03:53.974Z,5.20
2017-11-25T03:05:56.751Z,5.20
2017-11-25T03:07:59.731Z,5.20
2017-11-25T03:10:03.239Z,5.20
2017-11-25T03:12:05.978Z,5.10
2017-11-25T03:14:08.703Z,5.20
2017-11-25T03:16:11.435Z,5.20
2017-11-25T03:18:14.274Z,5.20
2017-11-25T03:20:16.997Z,5.20
2017-11-25T03:22:19.788Z,5.20
2017-11-25T03:24:23.326Z,5.10
2017-11-25T03:26:26.035Z,5.20
2017-11-25T03:28:28.917Z,5.10
2017-11-25T03:30:31.671Z,5.10
2017-11-25T03:32:34.386Z,5.10
2017-11-25T03:34:37.134Z,5.10
2017-11-25T03:36:39.864Z,5.10
2017-11-25T03:38:43.336Z,5.10
2017-11-25T03:40:46.050Z,5.10
2017-11-25T03:42:48.769Z,5.10
2017-11-25T03:44:51.484Z,5.10
2017-11-25T03:46:54.946Z,5.10
2017-11-25T03:48:57.661Z,5.10
2017-11-25T03:51:00.470Z,5.10
2017-11-25T03:53:03.243Z,5.10
2017-11-25T03:55:06.022Z,5.10
2017-11-25T03:57:08.780Z,5.10
2017-11-25T03:59:11.528Z,5.00
2017-11-25T04:01:14.256Z,5.00
2017-11-25T04:03:16.954Z,5.00
2017-11-25T04:05:19.679Z,5.00
2017-11-25T04:07:23.147Z,5.00
2017-11-25T04:09:26.952Z,4.90
2017-11-25T04:11:29.673Z,5.00
2017-11-25T04:13:32.405Z,5.00
2017-11-25T04:15:35.116Z,5.00
2017-11-25T04:17:37.846Z,4.90
2017-11-25T04:19:40.529Z,4.90
2017-11-25T04:21:43.225Z,4.90
2017-11-25T04:23:45.977Z,4.90
2017-11-25T04:25:48.705Z,4.90
2017-11-25T04:27:51.394Z,4.90
2017-11-25T04:29:54.151Z,4.90
2017-11-25T04:31:56.846Z,4.90
2017-11-25T04:33:59.636Z,5.00
2017-11-25T04:36:02.442Z,5.00
2017-11-25T04:38:05.400Z,5.00
2017-11-25T04:40:08.122Z,5.00
2017-11-25T04:42:11.686Z,4.90
2017-11-25T04:44:14.401Z,4.90
2017-11-25T04:46:17.893Z,4.90
2017-11-25T04:48:20.852Z,4.90
2017-11-25T04:50:23.606Z,4.90
2017-11-25T04:52:26.431Z,4.90
2017-11-25T04:54:29.130Z,4.90
2017-11-25T04:56:32.674Z,4.90
2017-11-25T04:58:35.521Z,4.90
2017-11-25T05:00:38.524Z,4.90
2017-11-25T05:02:41.433Z,5.00
2017-11-25T05:04:44.388Z,4.90
2017-11-25T05:06:47.182Z,4.80
2017-11-25T05:08:49.875Z,4.70
2017-11-25T05:10:52.606Z,4.70
2017-11-25T05:12:55.605Z,4.60
2017-11-25T05:14:58.590Z,4.60
2017-11-25T05:17:01.594Z,4.70
2017-11-25T05:19:04.320Z,4.70
2017-11-25T05:21:07.308Z,4.70
2017-11-25T05:23:10.214Z,4.70
2017-11-25T05:25:12.947Z,4.80
2017-11-25T05:27:16.511Z,4.80
2017-11-25T05:29:19.375Z,4.70
2017-11-25T05:31:22.252Z,4.80
2017-11-25T05:33:25.130Z,4.80
2017-11-25T05:35:28.013Z,4.70
2017-11-25T05:37:30.903Z,4.70
2017-11-25T05:39:33.773Z,4.70
2017-11-25T05:41:36.503Z,4.70
2017-11-25T05:43:39.260Z,4.70
2017-11-25T05:45:41.986Z,4.70
2017-11-25T05:47:44.719Z,4.70
2017-11-25T05:49:47.633Z,4.70
2017-11-25T05:51:51.128Z,4.60
2017-11-25T05:53:54.630Z,4.70
2017-11-25T05:55:57.324Z,4.70
2017-11-25T05:58:00.034Z,4.70
2017-11-25T06:00:02.764Z,4.60
2017-11-25T06:02:05.469Z,4.60
2017-11-25T06:04:08.192Z,4.60
2017-11-25T06:06:10.933Z,4.60
2017-11-25T06:08:13.725Z,4.50
2017-11-25T06:10:16.423Z,4.40
2017-11-25T06:12:19.146Z,4.50
2017-11-25T06:14:21.980Z,4.40
2017-11-25T06:16:24.701Z,4.40
2017-11-25T06:18:27.445Z,4.40
2017-11-25T06:20:30.909Z,4.30
2017-11-25T06:22:33.652Z,4.30
2017-11-25T06:24:36.380Z,4.30
2017-11-25T06:26:39.260Z,4.30
2017-11-25T06:28:41.956Z,4.30
2017-11-25T06:30:45.594Z,4.20
2017-11-25T06:32:48.579Z,4.20
2017-11-25T06:34:51.377Z,4.20
2017-11-25T06:36:54.340Z,4.20
2017-11-25T06:38:59.067Z,4.20
2017-11-25T06:41:02.046Z,4.10
2017-11-25T06:43:04.927Z,4.10
2017-11-25T06:45:08.011Z,4.10
2017-11-25T06:47:10.797Z,4.00
2017-11-25T06:49:13.569Z,4.00
2017-11-25T06:51:16.448Z,4.00
2017-11-25T06:53:19.174Z,4.00
2017-11-25T06:55:21.922Z,4.00
2017-11-25T06:57:24.617Z,3.90
2017-11-25T06:59:27.461Z,3.80
2017-11-25T07:01:30.445Z,3.80
2017-11-25T07:03:33.323Z,3.70
2017-11-25T07:05:36.176Z,3.70
2017-11-25T07:07:39.724Z,3.70
2017-11-25T07:09:43.274Z,3.70
2017-11-25T07:11:46.265Z,3.70
2017-11-25T07:13:49.880Z,3.50
2017-11-25T07:15:52.864Z,3.60
2017-11-25T07:17:55.664Z,3.50
2017-11-25T07:19:58.524Z,3.50
2017-11-25T07:22:01.444Z,3.50
2017-11-25T07:24:04.243Z,3.60
2017-11-25T07:26:07.913Z,3.50
2017-11-25T07:28:11.961Z,3.50
2017-11-25T07:30:16.280Z,3.50
2017-11-25T07:32:19.147Z,3.50
2017-11-25T07:34:22.682Z,3.50
2017-11-25T07:36:25.609Z,3.50
2017-11-25T07:38:29.472Z,3.40
2017-11-25T07:40:32.350Z,3.40
2017-11-25T07:42:35.200Z,3.40
2017-11-25T07:44:38.864Z,3.40
2017-11-25T07:46:41.824Z,3.40
2017-11-25T07:48:44.689Z,3.40
2017-11-25T07:50:47.799Z,3.40
2017-11-25T07:52:50.675Z,3.40
2017-11-25T07:54:54.770Z,3.50
2017-11-25T07:56:57.475Z,3.50
2017-11-25T07:59:00.242Z,3.50
2017-11-25T08:01:03.221Z,3.60
2017-11-25T08:03:06.188Z,3.60
2017-11-25T08:05:08.917Z,3.60
2017-11-25T08:07:11.953Z,3.70
2017-11-25T08:09:14.753Z,3.70
2017-11-25T08:11:18.467Z,3.70
2017-11-25T08:13:21.814Z,3.70
2017-11-25T08:15:24.474Z,3.70
2017-11-25T08:17:27.153Z,3.50
2017-11-25T08:19:29.961Z,3.60
2017-11-25T08:21:32.726Z,3.60
2017-11-25T08:23:35.380Z,3.60
2017-11-25T08:25:38.084Z,3.60
2017-11-25T08:27:40.735Z,3.70
2017-11-25T08:29:43.428Z,3.70
2017-11-25T08:31:46.113Z,3.70
2017-11-25T08:33:49.090Z,3.80
2017-11-25T08:35:51.875Z,3.90
2017-11-25T08:37:54.569Z,4.00
2017-11-25T08:39:57.493Z,4.00
2017-11-25T08:42:01.287Z,4.00
2017-11-25T08:44:04.825Z,4.00
2017-11-25T08:46:07.609Z,4.00
2017-11-25T08:48:10.305Z,3.90
2017-11-25T08:50:12.975Z,4.00
2017-11-25T08:52:15.695Z,4.00
2017-11-25T08:54:19.130Z,4.10
2017-11-25T08:56:21.785Z,4.10
2017-11-25T08:58:24.478Z,4.20
2017-11-25T09:00:27.143Z,4.30
2017-11-25T09:02:29.794Z,4.30
2017-11-25T09:04:33.280Z,4.40
2017-11-25T09:06:35.930Z,4.40
2017-11-25T09:08:38.631Z,4.60
2017-11-25T09:10:41.314Z,4.50
2017-11-25T09:12:44.737Z,4.60
2017-11-25T09:14:47.404Z,4.50
2017-11-25T09:16:50.083Z,4.50
2017-11-25T09:18:52.754Z,4.50
2017-11-25T09:20:56.171Z,4.60
2017-11-25T09:22:58.872Z,4.60
2017-11-25T09:25:01.553Z,4.70
2017-11-25T09:27:04.299Z,4.60
2017-11-25T09:29:06.987Z,4.70
2017-11-25T09:31:09.760Z,4.70
2017-11-25T09:33:12.586Z,4.80
2017-11-25T09:35:15.304Z,4.70
2017-11-25T09:37:18.319Z,4.70
2017-11-25T09:39:20.980Z,4.50
2017-11-25T09:41:23.667Z,4.70
2017-11-25T09:43:26.510Z,4.70
2017-11-25T09:45:29.161Z,5.30
2017-11-25T09:47:31.833Z,5.40
2017-11-25T09:49:34.545Z,5.60
2017-11-25T09:51:37.250Z,6.00
2017-11-25T09:53:39.989Z,7.10
2017-11-25T09:55:43.417Z,9.20
2017-11-25T09:57:46.097Z,9.10
2017-11-25T09:59:49.798Z,8.70
2017-11-25T10:01:52.489Z,8.00
2017-11-25T10:03:55.152Z,7.30
2017-11-25T10:05:57.827Z,7.20
2017-11-25T10:08:00.482Z,7.20
2017-11-25T10:10:03.157Z,8.60
2017-11-25T10:12:05.885Z,9.90
2017-11-25T10:14:08.584Z,10.50
2017-11-25T10:16:12.007Z,8.40
2017-11-25T10:18:15.731Z,8.40
2017-11-25T10:20:18.488Z,8.10
2017-11-25T10:22:21.265Z,7.70
2017-11-25T10:24:23.956Z,7.30
2017-11-25T10:26:26.610Z,7.40
2017-11-25T10:28:29.257Z,7.30
2017-11-25T10:30:32.811Z,7.90
2017-11-25T10:32:35.468Z,7.80
2017-11-25T10:34:38.120Z,7.60
2017-11-25T10:36:40.805Z,7.10
2017-11-25T10:38:43.472Z,6.40
2017-11-25T10:40:46.133Z,6.10
2017-11-25T10:42:49.589Z,5.80
2017-11-25T10:44:52.255Z,5.80
2017-11-25T10:46:55.018Z,5.90
2017-11-25T10:48:57.650Z,5.80
2017-11-25T10:51:00.780Z,5.90
2017-11-25T10:53:03.567Z,6.00
2017-11-25T10:55:06.271Z,5.90
2017-11-25T10:57:08.931Z,5.80
2017-11-25T10:59:12.384Z,5.80
2017-11-25T11:01:15.078Z,5.70
2017-11-25T11:03:17.750Z,5.80
2017-11-25T11:05:20.535Z,5.60
2017-11-25T11:07:23.314Z,5.80
2017-11-25T11:09:25.988Z,5.90
2017-11-25T11:11:28.641Z,5.60
2017-11-25T11:13:32.076Z,5.70
2017-11-25T11:15:34.777Z,5.70
2017-11-25T11:17:37.441Z,5.80
2017-11-25T11:19:40.101Z,5.80
2017-11-25T11:21:42.742Z,5.90
2017-11-25T11:23:45.424Z,6.30
2017-11-25T11:25:48.074Z,6.60
2017-11-25T11:27:50.738Z,7.10
2017-11-25T11:29:54.288Z,8.00
2017-11-25T11:31:56.964Z,8.00
2017-11-25T11:33:59.607Z,8.00
2017-11-25T11:36:03.265Z,7.90
2017-11-25T11:38:06.014Z,7.90
2017-11-25T11:40:09.183Z,8.10
2017-11-25T11:42:11.844Z,7.90
2017-11-25T11:44:15.275Z,7.60
2017-11-25T11:46:18.052Z,7.60
2017-11-25T11:48:20.831Z,7.50
2017-11-25T11:50:23.492Z,7.50
2017-11-25T11:52:26.185Z,7.30
2017-11-25T11:54:28.850Z,7.40
2017-11-25T11:56:31.488Z,7.60
2017-11-25T11:58:34.189Z,7.70
2017-11-25T12:00:36.878Z,7.70
2017-11-25T12:02:39.584Z,7.90
2017-11-25T12:04:42.272Z,8.00
2017-11-25T12:06:45.630Z,7.70
2017-11-25T12:08:48.887Z,7.90
2017-11-25T12:10:52.431Z,7.80
2017-11-25T12:12:55.101Z,7.80
2017-11-25T12:14:57.777Z,7.70
2017-11-25T12:17:00.453Z,7.70
2017-11-25T12:19:03.122Z,7.70
2017-11-25T12:21:05.775Z,7.70
2017-11-25T12:23:09.219Z,7.30
2017-11-25T12:25:11.888Z,7.30
2017-11-25T12:27:14.557Z,7.30
2017-11-25T12:29:17.228Z,7.20
2017-11-25T12:31:19.893Z,7.20
2017-11-25T12:33:22.674Z,7.20
2017-11-25T12:35:25.316Z,7.40
2017-11-25T12:37:28.739Z,7.10
2017-11-25T12:39:31.583Z,7.10
2017-11-25T12:41:35.093Z,6.80
2017-11-25T12:43:38.536Z,6.60
2017-11-25T12:45:41.217Z,6.70
2017-11-25T12:47:43.968Z,6.70
2017-11-25T12:49:49.849Z,6.80
2017-11-25T12:51:56.682Z,6.90
2017-11-25T12:53:59.873Z,6.90
2017-11-25T12:56:03.848Z,6.90
2017-11-25T12:58:06.595Z,6.80
2017-11-25T13:00:09.293Z,6.90
2017-11-25T13:02:11.967Z,6.90
2017-11-25T13:04:14.621Z,7.00
2017-11-25T13:06:17.261Z,6.90
2017-11-25T13:08:20.065Z,6.90
2017-11-25T13:10:22.829Z,6.80
2017-11-25T13:12:25.656Z,6.70
2017-11-25T13:14:28.348Z,6.60
2017-11-25T13:16:31.763Z,6.60
2017-11-25T13:18:34.450Z,6.60
2017-11-25T13:20:37.102Z,6.70
2017-11-25T13:22:40.529Z,6.80
2017-11-25T13:24:43.273Z,6.80
2017-11-25T13:26:46.698Z,6.60
2017-11-25T13:28:49.366Z,6.60
2017-11-25T13:30:52.040Z,6.70
2017-11-25T13:32:54.706Z,6.60
2017-11-25T13:34:57.389Z,6.60
2017-11-25T13:37:00.052Z,6.60
2017-11-25T13:39:02.710Z,6.50
2017-11-25T13:41:06.149Z,6.50
2017-11-25T13:43:08.816Z,6.50
2017-11-25T13:45:11.524Z,6.40
2017-11-25T13:47:14.281Z,6.40
2017-11-25T13:49:16.971Z,6.40
2017-11-25T13:51:19.650Z,6.40
2017-11-25T13:53:22.351Z,6.30
2017-11-25T13:55:25.001Z,6.20
2017-11-25T13:57:27.648Z,6.30
2017-11-25T13:59:30.395Z,6.20
2017-11-25T14:01:33.797Z,6.10
2017-11-25T14:03:37.254Z,6.20
2017-11-25T14:05:39.995Z,6.20
2017-11-25T14:07:42.771Z,6.30
2017-11-25T14:09:45.448Z,6.20
2017-11-25T14:11:48.173Z,6.10
2017-11-25T14:13:50.860Z,6.00
2017-11-25T14:15:53.561Z,6.00
2017-11-25T14:17:56.251Z,6.00
2017-11-25T14:19:58.939Z,6.00
2017-11-25T14:22:01.615Z,6.00
2017-11-25T14:24:04.311Z,5.90
2017-11-25T14:26:06.978Z,5.90
2017-11-25T14:28:09.664Z,5.90
2017-11-25T14:30:12.393Z,6.00
2017-11-25T14:32:15.048Z,5.90
2017-11-25T14:34:18.532Z,5.90
2017-11-25T14:36:21.204Z,5.90
2017-11-25T14:38:23.881Z,5.90
2017-11-25T14:40:26.603Z,5.80
2017-11-25T14:42:29.313Z,5.80
2017-11-25T14:44:32.069Z,5.70
2017-11-25T14:46:34.847Z,5.70
2017-11-25T14:48:37.545Z,5.60
2017-11-25T14:50:40.300Z,5.50
2017-11-25T14:52:42.988Z,5.50
2017-11-25T14:54:45.670Z,5.50
2017-11-25T14:56:48.346Z,5.40
2017-11-25T14:58:51.060Z,5.40
2017-11-25T15:00:53.726Z,5.40
2017-11-25T15:02:56.431Z,5.40
2017-11-25T15:05:00.871Z,5.50
2017-11-25T15:07:03.545Z,5.50
2017-11-25T15:09:06.228Z,5.70
2017-11-25T15:11:08.962Z,5.80
2017-11-25T15:13:11.615Z,5.70
2017-11-25T15:15:14.321Z,5.60
2017-11-25T15:17:17.041Z,5.40
2017-11-25T15:19:19.763Z,5.30
2017-11-25T15:21:22.489Z,5.10
2017-11-25T15:23:25.271Z,5.10
2017-11-25T15:25:28.047Z,5.00
2017-11-25T15:27:30.825Z,5.00
2017-11-25T15:29:33.811Z,5.00
2017-11-25T15:31:36.500Z,4.90
2017-11-25T15:33:39.188Z,4.90
2017-11-25T15:35:41.888Z,4.80
2017-11-25T15:37:44.580Z,4.70
2017-11-25T15:39:48.066Z,4.60
2017-11-25T15:41:50.762Z,4.60
2017-11-25T15:43:54.190Z,4.50
2017-11-25T15:45:56.875Z,4.40
2017-11-25T15:47:59.552Z,4.50
2017-11-25T15:50:02.316Z,4.40
2017-11-25T15:52:05.002Z,4.40
2017-11-25T15:54:07.662Z,4.40
2017-11-25T15:56:10.401Z,4.40
2017-11-25T15:58:13.120Z,4.30
2017-11-25T16:00:16.640Z,4.30
2017-11-25T16:02:19.297Z,4.20
2017-11-25T16:04:21.996Z,4.20
2017-11-25T16:06:25.411Z,4.10
2017-11-25T16:08:28.061Z,4.00
2017-11-25T16:10:30.787Z,4.10
2017-11-25T16:12:34.290Z,4.10
2017-11-25T16:14:37.803Z,4.10
2017-11-25T16:16:40.537Z,4.10
2017-11-25T16:18:43.222Z,4.10
2017-11-25T16:20:46.634Z,4.10
2017-11-25T16:22:49.340Z,4.10
2017-11-25T16:24:52.107Z,4.10
2017-11-25T16:26:54.776Z,4.10
2017-11-25T16:28:57.499Z,4.10
2017-11-25T16:31:00.229Z,4.00
2017-11-25T16:33:02.920Z,4.00
2017-11-25T16:35:05.622Z,3.90
2017-11-25T16:37:08.314Z,3.80
2017-11-25T16:39:11.027Z,3.80
2017-11-25T16:41:13.669Z,3.80
2017-11-25T16:43:16.320Z,3.80
2017-11-25T16:45:19.006Z,3.80
2017-11-25T16:47:21.665Z,3.80
2017-11-25T16:49:24.341Z,3.80
2017-11-25T16:51:27.680Z,3.80
2017-11-25T16:53:31.107Z,3.80
2017-11-25T16:55:33.765Z,3.80
2017-11-25T16:57:36.435Z,3.80
2017-11-25T16:59:39.957Z,3.80
2017-11-25T17:01:42.631Z,3.80
2017-11-25T17:03:47.377Z,3.80
2017-11-25T17:05:50.016Z,3.80
2017-11-25T17:07:52.678Z,3.80
2017-11-25T17:09:56.132Z,3.80
2017-11-25T17:11:58.776Z,3.80
2017-11-25T17:14:01.416Z,3.70
2017-11-25T17:16:05.257Z,3.70
2017-11-25T17:18:07.903Z,3.70
2017-11-25T17:20:11.316Z,3.70
2017-11-25T17:22:13.996Z,3.60
2017-11-25T17:24:16.650Z,3.60
2017-11-25T17:26:20.054Z,3.50
2017-11-25T17:28:22.792Z,3.40
2017-11-25T17:30:25.500Z,3.50
2017-11-25T17:32:28.950Z,3.40
2017-11-25T17:34:31.695Z,3.40
2017-11-25T17:36:34.370Z,3.30
2017-11-25T17:38:37.107Z,3.20
2017-11-25T17:40:39.791Z,3.10
2017-11-25T17:42:43.215Z,3.00
2017-11-25T17:44:45.868Z,3.00
2017-11-25T17:46:49.305Z,3.00
2017-11-25T17:48:51.964Z,3.00
2017-11-25T17:50:54.610Z,3.00
2017-11-25T17:52:58.065Z,2.90
2017-11-25T17:55:00.729Z,2.90
2017-11-25T17:57:03.407Z,2.90
2017-11-25T17:59:06.092Z,2.80
2017-11-25T18:01:08.745Z,2.70
2017-11-25T18:03:11.385Z,2.70
2017-11-25T18:05:14.852Z,2.70
2017-11-25T18:07:17.507Z,2.70
2017-11-25T18:09:20.215Z,2.70
2017-11-25T18:11:22.875Z,2.70
2017-11-25T18:13:25.519Z,2.70
2017-11-25T18:15:28.176Z,2.70
2017-11-25T18:17:30.853Z,2.70
2017-11-25T18:19:33.511Z,2.60
2017-11-25T18:21:36.922Z,2.60
2017-11-25T18:23:39.616Z,2.50
2017-11-25T18:25:42.292Z,2.50
2017-11-25T18:27:45.006Z,2.40
2017-11-25T18:29:47.685Z,2.50
2017-11-25T18:31:50.336Z,2.50
2017-11-25T18:33:53.036Z,2.50
2017-11-25T18:35:55.768Z,2.50
2017-11-25T18:37:58.467Z,2.50
2017-11-25T18:40:01.168Z,2.50
2017-11-25T18:42:03.860Z,2.50
2017-11-25T18:44:07.375Z,2.50
2017-11-25T18:46:10.071Z,2.40
2017-11-25T18:48:12.787Z,2.40
2017-11-25T18:50:15.443Z,2.40
2017-11-25T18:52:18.204Z,2.40
2017-11-25T18:54:20.920Z,2.40
2017-11-25T18:56:23.600Z,2.40
2017-11-25T18:58:26.283Z,2.40
2017-11-25T19:00:29.040Z,2.50
2017-11-25T19:02:31.699Z,2.50
2017-11-25T19:04:34.354Z,2.40
2017-11-25T19:06:37.052Z,2.40
2017-11-25T19:08:39.722Z,2.30
2017-11-25T19:10:42.401Z,2.30
2017-11-25T19:12:45.097Z,2.30
2017-11-25T19:14:47.838Z,2.40
2017-11-25T19:16:50.494Z,2.30
2017-11-25T19:18:53.934Z,2.30
2017-11-25T19:20:56.587Z,2.30
2017-11-25T19:22:59.278Z,2.30
2017-11-25T19:25:01.940Z,2.30
2017-11-25T19:27:04.617Z,2.30
2017-11-25T19:29:07.351Z,2.30
2017-11-25T19:31:10.795Z,2.40
2017-11-25T19:33:13.492Z,2.40
2017-11-25T19:35:16.173Z,2.50
2017-11-25T19:37:18.892Z,2.60
2017-11-25T19:39:22.343Z,2.70
2017-11-25T19:41:25.055Z,2.70
2017-11-25T19:43:28.517Z,2.70
2017-11-25T19:45:31.214Z,2.70
2017-11-25T19:47:33.869Z,2.60
2017-11-25T19:49:36.567Z,2.70
2017-11-25T19:51:39.277Z,2.60
2017-11-25T19:53:41.986Z,2.60
2017-11-25T19:55:44.642Z,2.50
2017-11-25T19:57:47.367Z,2.50
2017-11-25T19:59:50.890Z,2.60
2017-11-25T20:01:54.315Z,2.60
2017-11-25T20:03:57.090Z,2.60
2017-11-25T20:05:59.733Z,2.60
2017-11-25T20:08:03.170Z,2.70
2017-11-25T20:10:05.839Z,2.70
2017-11-25T20:12:08.613Z,2.50
2017-11-25T20:14:11.277Z,2.40
2017-11-25T20:16:13.971Z,2.40
2017-11-25T20:18:16.645Z,2.40
2017-11-25T20:20:19.384Z,2.40
2017-11-25T20:22:22.854Z,2.70
2017-11-25T20:24:25.507Z,2.70
2017-11-25T20:26:28.234Z,3.00
2017-11-25T20:28:31.685Z,3.20
2017-11-25T20:30:34.439Z,3.20
2017-11-25T20:32:37.095Z,3.30
2017-11-25T20:34:40.716Z,3.40
2017-11-25T20:36:43.368Z,3.40
2017-11-25T20:38:46.873Z,3.20
2017-11-25T20:40:49.563Z,3.20
2017-11-25T20:42:53.247Z,3.10
2017-11-25T20:44:55.937Z,3.10
2017-11-25T20:46:58.777Z,3.10
2017-11-25T20:49:02.195Z,3.00
2017-11-25T20:51:04.913Z,3.00
2017-11-25T20:53:07.817Z,3.00
2017-11-25T20:55:10.469Z,2.90
2017-11-25T20:57:13.138Z,2.90
2017-11-25T20:59:15.895Z,2.90
2017-11-25T21:01:18.703Z,2.90
2017-11-25T21:03:21.407Z,3.00
2017-11-25T21:05:24.135Z,3.00
2017-11-25T21:07:26.896Z,3.00
2017-11-25T21:09:29.620Z,3.00
2017-11-25T21:11:33.152Z,3.10
2017-11-25T21:13:36.882Z,3.20
2017-11-25T21:15:39.573Z,3.20
2017-11-25T21:17:42.306Z,3.10
2017-11-25T21:19:45.759Z,3.20
2017-11-25T21:21:48.468Z,3.20
2017-11-25T21:23:51.881Z,3.20
2017-11-25T21:25:58.164Z,3.20
2017-11-25T21:28:00.893Z,3.20
2017-11-25T21:30:03.769Z,3.20
2017-11-25T21:32:06.640Z,3.20
2017-11-25T21:34:09.579Z,3.20
2017-11-25T21:36:12.347Z,3.20
2017-11-25T21:38:15.866Z,3.20
2017-11-25T21:40:18.904Z,3.20
2017-11-25T21:42:22.628Z,3.20
2017-11-25T21:44:25.272Z,3.20
2017-11-25T21:46:27.950Z,3.10
2017-11-25T21:48:30.664Z,3.00
2017-11-25T21:50:33.342Z,2.90
2017-11-25T21:52:36.029Z,2.80
2017-11-25T21:54:38.722Z,2.80
2017-11-25T21:56:41.389Z,2.70
2017-11-25T21:58:44.075Z,2.70
2017-11-25T22:00:46.747Z,2.70
2017-11-25T22:02:49.404Z,2.60
2017-11-25T22:04:52.079Z,2.60
2017-11-25T22:06:54.731Z,2.60
2017-11-25T22:08:58.179Z,2.50
2017-11-25T22:11:01.015Z,2.50
2017-11-25T22:13:03.686Z,2.50
2017-11-25T22:15:07.156Z,2.50
2017-11-25T22:17:09.852Z,2.50
2017-11-25T22:19:12.544Z,2.50
2017-11-25T22:21:15.218Z,2.50
2017-11-25T22:23:17.897Z,2.50
2017-11-25T22:25:20.544Z,2.50
2017-11-25T22:27:23.227Z,2.50
2017-11-25T22:29:25.886Z,2.50
2017-11-25T22:31:28.642Z,2.40
2017-11-25T22:33:31.348Z,2.40
2017-11-25T22:35:34.013Z,2.40
2017-11-25T22:37:36.669Z,2.40
2017-11-25T22:39:39.394Z,2.50
2017-11-25T22:41:42.090Z,2.50
2017-11-25T22:43:44.747Z,2.40
2017-11-25T22:45:48.220Z,2.50
2017-11-25T22:47:50.884Z,2.50
2017-11-25T22:49:53.533Z,2.50
2017-11-25T22:51:56.209Z,2.60
2017-11-25T22:53:58.846Z,2.90
2017-11-25T22:56:01.543Z,2.80
2017-11-25T22:58:04.192Z,2.90
2017-11-25T23:00:07.637Z,2.80
2017-11-25T23:02:11.132Z,2.80
2017-11-25T23:04:13.782Z,2.80
2017-11-25T23:06:16.547Z,2.70
2017-11-25T23:08:19.252Z,2.70
2017-11-25T23:10:21.920Z,2.60
2017-11-25T23:12:24.600Z,2.60
2017-11-25T23:14:27.370Z,2.60
2017-11-25T23:16:30.026Z,2.50
2017-11-25T23:18:32.694Z,2.40
2017-11-25T23:20:36.139Z,2.40
2017-11-25T23:22:38.812Z,2.40
2017-11-25T23:24:41.471Z,2.40
2017-11-25T23:26:44.146Z,2.50
2017-11-25T23:28:46.828Z,2.50
2017-11-25T23:30:49.500Z,2.50
2017-11-25T23:32:52.171Z,2.50
2017-11-25T23:34:54.860Z,2.40
2017-11-25T23:36:57.512Z,2.40
2017-11-25T23:39:00.304Z,2.40
2017-11-25T23:41:02.949Z,2.30
2017-11-25T23:43:06.354Z,2.30
2017-11-25T23:45:09.028Z,2.30
2017-11-25T23:47:11.671Z,2.30
2017-11-25T23:49:14.333Z,2.30
2017-11-25T23:51:17.007Z,2.20
2017-11-25T23:53:19.676Z,2.20
2017-11-25T23:55:22.429Z,2.20
2017-11-25T23:57:25.090Z,2.20
2017-11-25T23:59:27.758Z,2.20
